createdAt,value
2022-10-22T00:00:18.766Z,39.28
2022-10-22T00:02:46.120Z,38.38
2022-10-22T00:05:13.758Z,39.60
2022-10-22T00:07:41.582Z,38.55
2022-10-22T00:10:09.977Z,38.97
2022-10-22T00:12:37.343Z,38.72
2022-10-22T00:15:06.537Z,38.63
2022-10-22T00:17:33.862Z,39.35
2022-10-22T00:20:01.280Z,39.17
2022-10-22T00:22:28.591Z,37.88
2022-10-22T00:24:56.024Z,38.17
2022-10-22T00:27:23.311Z,38.42
2022-10-22T00:29:50.701Z,38.55
2022-10-22T00:32:18.087Z,38.63
2022-10-22T00:34:45.437Z,37.55
2022-10-22T00:37:13.125Z,38.45
2022-10-22T00:39:40.575Z,38.83
2022-10-22T00:42:07.990Z,39.00
2022-10-22T00:45:00.282Z,38.65
2022-10-22T00:47:31.617Z,38.30
2022-10-22T00:50:00.537Z,38.10
2022-10-22T00:52:28.580Z,38.50
2022-10-22T00:54:57.276Z,38.85
2022-10-22T00:57:24.717Z,38.28
2022-10-22T00:59:52.167Z,38.25
2022-10-22T01:02:19.789Z,37.55
2022-10-22T01:04:47.398Z,38.10
2022-10-22T01:07:18.398Z,38.65
2022-10-22T01:10:12.003Z,38.92
2022-10-22T01:13:05.855Z,38.75
2022-10-22T01:15:52.409Z,34.25
2022-10-22T01:18:35.897Z,7.40
2022-10-22T01:21:33.105Z,18.13
2022-10-22T01:24:27.254Z,38.05
2022-10-22T01:27:03.992Z,39.45
2022-10-22T01:29:44.030Z,38.88
2022-10-22T01:32:16.546Z,38.50
2022-10-22T01:34:49.342Z,39.38
2022-10-22T01:37:18.254Z,39.05
2022-10-22T01:39:47.888Z,38.30
2022-10-22T01:42:15.516Z,38.65
2022-10-22T01:44:43.133Z,38.53
2022-10-22T01:47:31.394Z,38.80
2022-10-22T01:50:25.131Z,38.47
2022-10-22T01:55:36.291Z,37.78
2022-10-22T01:58:14.665Z,38.70
2022-10-22T02:01:06.566Z,37.85
2022-10-22T02:03:52.690Z,37.88
2022-10-22T02:06:22.638Z,38.53
2022-10-22T02:08:51.639Z,37.90
2022-10-22T02:11:19.193Z,37.70
2022-10-22T02:13:57.028Z,38.80
2022-10-22T02:16:38.739Z,37.92
2022-10-22T02:19:17.931Z,37.33
2022-10-22T02:21:45.707Z,29.05
2022-10-22T02:24:13.311Z,28.38
2022-10-22T02:26:50.674Z,37.78
2022-10-22T02:29:49.478Z,37.55
2022-10-22T02:32:21.918Z,37.60
2022-10-22T02:34:51.208Z,38.95
2022-10-22T02:37:19.097Z,37.42
2022-10-22T02:39:46.859Z,37.67
2022-10-22T02:42:14.385Z,37.92
2022-10-22T02:44:41.732Z,38.10
2022-10-22T02:47:09.029Z,38.10
2022-10-22T02:49:36.782Z,37.60
2022-10-22T02:52:04.036Z,37.97
2022-10-22T02:54:31.533Z,38.05
2022-10-22T02:56:58.809Z,37.28
2022-10-22T02:59:26.222Z,37.60
2022-10-22T03:01:53.549Z,37.72
2022-10-22T03:04:20.898Z,37.92
2022-10-22T03:06:49.140Z,39.20
2022-10-22T03:09:20.168Z,37.35
2022-10-22T03:11:50.033Z,38.10
2022-10-22T03:14:17.398Z,38.40
2022-10-22T03:16:45.198Z,38.33
2022-10-22T03:19:12.561Z,37.63
2022-10-22T03:21:48.646Z,37.90
2022-10-22T03:24:21.505Z,37.85
2022-10-22T03:26:51.912Z,39.28
2022-10-22T03:29:21.369Z,38.38
2022-10-22T03:31:48.621Z,38.35
2022-10-22T03:34:16.070Z,37.92
2022-10-22T03:36:43.498Z,37.90
2022-10-22T03:39:13.610Z,37.90
2022-10-22T03:41:41.525Z,37.75
2022-10-22T03:44:09.205Z,37.90
2022-10-22T03:46:36.543Z,35.20
2022-10-22T03:49:03.950Z,28.02
2022-10-22T03:51:31.282Z,24.30
2022-10-22T03:53:58.579Z,20.55
2022-10-22T03:56:25.933Z,26.15
2022-10-22T03:58:57.656Z,19.42
2022-10-22T04:01:25.318Z,16.85
2022-10-22T04:03:52.735Z,8.98
2022-10-22T04:06:20.152Z,9.82
2022-10-22T04:08:48.755Z,6.47
2022-10-22T04:11:17.256Z,10.48
2022-10-22T04:13:44.922Z,18.52
2022-10-22T04:16:15.316Z,15.98
2022-10-22T04:18:43.980Z,17.67
2022-10-22T04:21:13.307Z,16.75
2022-10-22T04:23:46.127Z,12.63
2022-10-22T04:26:13.793Z,9.90
2022-10-22T04:28:41.247Z,11.00
2022-10-22T04:31:10.931Z,11.43
2022-10-22T04:33:38.759Z,7.70
2022-10-22T04:36:11.862Z,8.77
2022-10-22T04:38:40.170Z,6.85
2022-10-22T04:41:19.708Z,8.77
2022-10-22T04:43:48.101Z,9.73
2022-10-22T04:46:17.373Z,11.63
2022-10-22T04:48:46.135Z,12.52
2022-10-22T04:51:17.156Z,11.27
2022-10-22T04:53:45.311Z,20.10
2022-10-22T04:56:20.785Z,21.50
2022-10-22T04:58:50.016Z,26.02
2022-10-22T05:01:20.923Z,27.40
2022-10-22T05:03:50.059Z,27.08
2022-10-22T05:06:17.616Z,25.35
2022-10-22T05:08:45.097Z,27.05
2022-10-22T05:11:18.346Z,25.40
2022-10-22T05:16:13.658Z,38.42
2022-10-22T05:18:43.544Z,21.23
2022-10-22T05:21:16.707Z,24.63
2022-10-22T05:26:14.344Z,28.95
2022-10-22T05:28:42.328Z,28.13
2022-10-22T05:31:12.417Z,25.83
2022-10-22T05:33:40.587Z,25.20
2022-10-22T05:36:09.774Z,29.10
2022-10-22T05:38:37.181Z,35.67
2022-10-22T05:41:10.148Z,34.63
2022-10-22T05:43:37.717Z,35.75
2022-10-22T05:46:07.573Z,40.47
2022-10-22T05:48:35.029Z,31.60
2022-10-22T05:51:07.477Z,31.75
2022-10-22T05:53:36.853Z,37.35
2022-10-22T05:56:11.063Z,26.52
2022-10-22T05:58:39.341Z,38.22
2022-10-22T06:01:30.309Z,38.65
2022-10-22T06:04:00.402Z,35.75
2022-10-22T06:06:38.191Z,34.45
2022-10-22T06:09:16.505Z,33.20
2022-10-22T06:11:44.620Z,40.03
2022-10-22T06:14:12.323Z,40.10
2022-10-22T06:16:39.918Z,40.55
2022-10-22T06:19:08.105Z,38.90
2022-10-22T06:21:35.893Z,40.13
2022-10-22T06:24:03.318Z,39.75
2022-10-22T06:26:31.116Z,39.45
2022-10-22T06:28:59.261Z,34.53
2022-10-22T06:31:27.758Z,32.40
2022-10-22T06:33:56.711Z,39.92
2022-10-22T06:36:24.971Z,40.15
2022-10-22T06:38:53.960Z,40.03
2022-10-22T06:41:24.281Z,39.50
2022-10-22T06:43:54.936Z,39.50
2022-10-22T06:46:23.155Z,39.65
2022-10-22T06:48:53.031Z,39.35
2022-10-22T06:51:21.322Z,39.83
2022-10-22T06:53:49.418Z,41.17
2022-10-22T06:56:20.637Z,40.67
2022-10-22T06:58:52.754Z,38.78
2022-10-22T07:01:23.763Z,27.83
2022-10-22T07:03:52.105Z,38.78
2022-10-22T07:06:21.139Z,33.55
2022-10-22T07:08:48.829Z,29.90
2022-10-22T07:11:24.377Z,21.77
2022-10-22T07:13:58.150Z,15.93
2022-10-22T07:16:29.656Z,13.32
2022-10-22T07:19:01.478Z,15.02
2022-10-22T07:21:29.324Z,22.55
2022-10-22T07:23:56.960Z,24.67
2022-10-22T07:26:25.542Z,28.00
2022-10-22T07:28:53.029Z,30.15
2022-10-22T07:31:20.506Z,33.17
2022-10-22T07:33:47.938Z,33.13
2022-10-22T07:36:19.607Z,19.48
2022-10-22T07:38:54.046Z,29.48
2022-10-22T07:41:21.953Z,23.80
2022-10-22T07:43:49.474Z,30.10
2022-10-22T07:46:16.799Z,13.02
2022-10-22T07:48:44.220Z,13.57
2022-10-22T07:51:11.720Z,10.13
2022-10-22T07:53:39.299Z,10.43
2022-10-22T07:56:07.002Z,8.18
2022-10-22T07:58:34.346Z,8.30
2022-10-22T08:01:02.978Z,7.70
2022-10-22T08:03:30.479Z,7.35
2022-10-22T08:05:58.453Z,40.88
2022-10-22T08:08:29.682Z,4.28
2022-10-22T08:11:00.647Z,10.80
2022-10-22T08:13:30.787Z,13.32
2022-10-22T08:16:00.426Z,12.35
2022-10-22T08:18:28.636Z,13.18
2022-10-22T08:20:56.451Z,40.45
2022-10-22T08:23:27.437Z,5.72
2022-10-22T08:25:56.761Z,16.30
2022-10-22T08:28:24.050Z,8.10
2022-10-22T08:30:51.556Z,6.13
2022-10-22T08:33:19.328Z,7.43
2022-10-22T08:35:50.938Z,10.27
2022-10-22T08:38:19.814Z,6.97
2022-10-22T08:40:54.115Z,9.77
2022-10-22T08:44:14.789Z,5.32
2022-10-22T08:47:04.370Z,7.38
2022-10-22T08:49:41.342Z,5.50
2022-10-22T08:52:15.828Z,5.65
2022-10-22T08:54:58.871Z,7.35
2022-10-22T08:57:35.561Z,7.05
2022-10-22T09:00:13.702Z,6.45
2022-10-22T09:03:05.261Z,6.78
2022-10-22T09:05:45.659Z,6.95
2022-10-22T09:08:15.229Z,6.00
2022-10-22T09:10:48.859Z,8.52
2022-10-22T09:13:19.889Z,7.50
2022-10-22T09:15:55.955Z,8.27
2022-10-22T09:18:55.359Z,6.40
2022-10-22T09:21:32.764Z,9.52
2022-10-22T09:24:04.751Z,10.52
2022-10-22T09:26:36.564Z,8.20
2022-10-22T09:29:04.868Z,7.80
2022-10-22T09:31:33.819Z,6.80
2022-10-22T09:34:07.726Z,9.85
2022-10-22T09:36:35.963Z,8.10
2022-10-22T09:39:04.329Z,7.78
2022-10-22T09:41:31.823Z,5.38
2022-10-22T09:43:59.564Z,11.85
2022-10-22T09:46:30.461Z,10.25
2022-10-22T09:49:02.756Z,4.32
2022-10-22T09:51:38.109Z,5.72
2022-10-22T09:54:25.837Z,78.15
2022-10-22T09:57:06.998Z,6.32
2022-10-22T09:59:38.679Z,4.18
2022-10-22T10:02:37.470Z,67.88
2022-10-22T10:05:08.671Z,63.65
2022-10-22T10:07:37.182Z,67.65
2022-10-22T10:10:19.949Z,79.03
2022-10-22T10:13:15.900Z,83.57
2022-10-22T10:16:01.023Z,53.13
2022-10-22T10:19:01.973Z,54.85
2022-10-22T10:21:44.255Z,80.55
2022-10-22T10:24:21.167Z,5.72
2022-10-22T10:26:54.708Z,7.13
2022-10-22T10:29:43.715Z,6.00
2022-10-22T10:32:44.513Z,6.80
2022-10-22T10:35:21.369Z,6.20
2022-10-22T10:38:25.951Z,5.93
2022-10-22T10:41:27.640Z,10.23
2022-10-22T10:44:30.327Z,11.80
2022-10-22T10:47:05.489Z,6.85
2022-10-22T10:49:36.934Z,7.85
2022-10-22T10:52:18.804Z,10.70
2022-10-22T10:55:17.305Z,7.07
2022-10-22T10:58:06.269Z,9.13
2022-10-22T11:00:41.182Z,37.90
2022-10-22T11:03:26.895Z,56.60
2022-10-22T11:06:25.571Z,7.65
2022-10-22T11:08:58.082Z,86.30
2022-10-22T11:11:57.760Z,60.40
2022-10-22T11:14:35.442Z,62.03
2022-10-22T11:17:10.481Z,6.80
2022-10-22T11:19:51.524Z,35.55
2022-10-22T11:23:13.533Z,62.30
2022-10-22T11:25:46.030Z,6.60
2022-10-22T11:28:41.022Z,7.32
2022-10-22T11:31:18.022Z,87.00
2022-10-22T11:34:32.654Z,62.75
2022-10-22T11:37:03.268Z,85.25
2022-10-22T11:39:39.110Z,6.72
2022-10-22T11:42:30.205Z,7.97
2022-10-22T11:45:04.007Z,83.65
2022-10-22T11:47:57.469Z,61.35
2022-10-22T11:50:50.963Z,86.38
2022-10-22T11:53:26.474Z,6.85
2022-10-22T11:55:57.739Z,7.38
2022-10-22T11:58:32.269Z,7.80
2022-10-22T12:01:02.406Z,7.75
2022-10-22T12:03:32.529Z,9.40
2022-10-22T12:06:12.772Z,7.15
2022-10-22T12:08:53.416Z,5.95
2022-10-22T12:11:37.280Z,81.22
2022-10-22T12:14:24.535Z,78.00
2022-10-22T12:16:57.567Z,59.92
2022-10-22T12:19:32.796Z,5.63
2022-10-22T12:22:03.380Z,6.32
2022-10-22T12:24:35.424Z,5.97
2022-10-22T12:27:03.231Z,84.55
2022-10-22T12:29:33.193Z,5.95
2022-10-22T12:32:04.807Z,7.97
2022-10-22T12:34:32.164Z,6.35
2022-10-22T12:36:59.493Z,6.45
2022-10-22T12:39:27.929Z,6.57
2022-10-22T12:41:55.963Z,5.28
2022-10-22T12:44:23.314Z,4.65
2022-10-22T12:46:54.423Z,5.00
2022-10-22T12:49:36.254Z,5.15
2022-10-22T12:52:14.131Z,6.18
2022-10-22T12:54:41.958Z,5.97
2022-10-22T12:57:16.059Z,5.47
2022-10-22T12:59:50.019Z,3.70
2022-10-22T13:02:26.245Z,5.05
2022-10-22T13:05:11.894Z,7.40
2022-10-22T13:07:41.592Z,11.70
2022-10-22T13:10:34.487Z,9.57
2022-10-22T13:13:04.138Z,14.02
2022-10-22T13:15:31.395Z,11.10
2022-10-22T13:18:21.178Z,8.35
2022-10-22T13:21:06.749Z,7.85
2022-10-22T13:23:35.128Z,6.05
2022-10-22T13:26:14.913Z,6.07
2022-10-22T13:28:42.957Z,5.43
2022-10-22T13:31:17.213Z,6.47
2022-10-22T13:33:47.499Z,7.90
2022-10-22T13:36:16.511Z,48.35
2022-10-22T13:38:45.381Z,27.80
2022-10-22T13:41:33.220Z,41.03
2022-10-22T13:44:00.741Z,39.88
2022-10-22T13:46:29.221Z,39.65
2022-10-22T13:48:58.904Z,40.45
2022-10-22T13:51:37.181Z,41.00
2022-10-22T13:54:11.105Z,40.28
2022-10-22T13:56:38.506Z,41.47
2022-10-22T13:59:06.006Z,40.05
2022-10-22T14:01:33.462Z,39.05
2022-10-22T14:04:04.644Z,39.90
2022-10-22T14:06:33.698Z,40.67
2022-10-22T14:09:05.211Z,41.80
2022-10-22T14:11:32.866Z,40.72
2022-10-22T14:14:00.224Z,42.72
2022-10-22T14:16:31.407Z,42.13
2022-10-22T14:18:59.651Z,40.53
2022-10-22T14:21:30.962Z,39.95
2022-10-22T14:23:58.283Z,41.67
2022-10-22T14:26:33.201Z,41.20
2022-10-22T14:29:10.641Z,41.13
2022-10-22T14:31:44.155Z,42.50
2022-10-22T14:34:13.853Z,41.88
2022-10-22T14:36:43.816Z,41.90
2022-10-22T14:39:12.043Z,39.42
2022-10-22T14:41:39.803Z,39.65
2022-10-22T14:44:12.765Z,40.53
2022-10-22T14:46:42.779Z,41.17
2022-10-22T14:49:10.547Z,41.70
2022-10-22T14:51:38.308Z,40.10
2022-10-22T14:54:05.598Z,38.67
2022-10-22T14:56:33.071Z,39.35
2022-10-22T14:59:00.508Z,40.25
2022-10-22T15:01:28.140Z,39.92
2022-10-22T15:03:55.407Z,39.95
2022-10-22T15:06:22.741Z,40.00
2022-10-22T15:08:51.124Z,39.22
2022-10-22T15:11:18.505Z,43.13
2022-10-22T15:13:45.830Z,41.53
2022-10-22T15:16:16.382Z,42.33
2022-10-22T15:18:43.816Z,41.45
2022-10-22T15:21:20.396Z,34.88
2022-10-22T15:23:48.307Z,41.20
2022-10-22T15:26:15.666Z,39.70
2022-10-22T15:28:43.452Z,42.95
2022-10-22T15:31:14.359Z,35.65
2022-10-22T15:33:42.889Z,40.70
2022-10-22T15:36:16.337Z,40.75
2022-10-22T15:38:43.763Z,41.97
2022-10-22T15:41:13.577Z,41.65
2022-10-22T15:43:41.163Z,41.65
2022-10-22T15:46:18.070Z,41.63
2022-10-22T15:48:46.464Z,41.15
2022-10-22T15:51:16.213Z,41.42
2022-10-22T15:53:44.075Z,42.95
2022-10-22T15:56:14.564Z,34.50
2022-10-22T15:58:41.980Z,43.92
2022-10-22T16:01:13.925Z,42.30
2022-10-22T16:03:41.814Z,41.17
2022-10-22T16:06:09.573Z,40.60
2022-10-22T16:08:37.971Z,41.38
2022-10-22T16:11:05.928Z,39.90
2022-10-22T16:13:33.334Z,40.45
2022-10-22T16:16:06.113Z,39.97
2022-10-22T16:18:33.635Z,40.35
2022-10-22T16:21:00.934Z,40.38
2022-10-22T16:23:28.335Z,42.38
2022-10-22T16:25:55.580Z,41.08
2022-10-22T16:28:23.365Z,41.90
2022-10-22T16:30:50.739Z,40.75
2022-10-22T16:33:18.059Z,41.40
2022-10-22T16:35:45.418Z,40.88
2022-10-22T16:38:12.849Z,40.05
2022-10-22T16:40:40.287Z,40.35
2022-10-22T16:43:07.697Z,38.70
2022-10-22T16:45:34.967Z,39.58
2022-10-22T16:48:02.506Z,40.00
2022-10-22T16:50:29.868Z,39.70
2022-10-22T16:52:57.632Z,39.88
2022-10-22T16:55:25.015Z,40.53
2022-10-22T16:57:53.628Z,40.90
2022-10-22T17:00:21.845Z,41.83
2022-10-22T17:02:55.003Z,39.22
2022-10-22T17:05:22.877Z,39.90
2022-10-22T17:07:51.026Z,41.17
2022-10-22T17:10:19.924Z,41.80
2022-10-22T17:12:48.224Z,40.72
2022-10-22T17:15:15.772Z,40.83
2022-10-22T17:17:43.145Z,39.67
2022-10-22T17:20:11.581Z,38.67
2022-10-22T17:22:38.996Z,38.42
2022-10-22T17:25:22.239Z,40.05
2022-10-22T17:27:49.739Z,40.05
2022-10-22T17:30:23.344Z,40.05
2022-10-22T17:32:54.670Z,39.90
2022-10-22T17:35:21.940Z,39.42
2022-10-22T17:37:49.440Z,37.55
2022-10-22T17:40:16.922Z,39.90
2022-10-22T17:42:45.570Z,41.40
2022-10-22T17:45:12.810Z,39.50
2022-10-22T17:47:40.794Z,40.05
2022-10-22T17:50:08.893Z,40.97
2022-10-22T17:52:36.564Z,41.30
2022-10-22T17:55:04.322Z,40.00
2022-10-22T17:57:31.718Z,39.80
2022-10-22T17:59:59.068Z,39.75
2022-10-22T18:02:26.524Z,40.13
2022-10-22T18:04:53.844Z,39.67
2022-10-22T18:07:21.225Z,39.97
2022-10-22T18:09:48.887Z,39.50
2022-10-22T18:12:18.180Z,40.03
2022-10-22T18:14:47.121Z,40.05
2022-10-22T18:19:48.602Z,40.30
2022-10-22T18:22:15.936Z,40.90
2022-10-22T18:24:43.292Z,41.00
2022-10-22T18:27:10.584Z,41.00
2022-10-22T18:29:38.851Z,40.97
2022-10-22T18:32:12.127Z,40.88
2022-10-22T18:34:40.619Z,41.13
2022-10-22T18:37:07.999Z,41.60
2022-10-22T18:39:35.756Z,40.53
2022-10-22T18:42:06.448Z,40.45
2022-10-22T18:44:35.034Z,40.58
2022-10-22T18:47:02.429Z,39.22
2022-10-22T18:49:29.867Z,40.67
2022-10-22T18:51:57.110Z,40.42
2022-10-22T18:54:24.886Z,40.03
2022-10-22T18:56:55.558Z,39.88
2022-10-22T18:59:26.150Z,40.72
2022-10-22T19:01:55.260Z,40.22
2022-10-22T19:04:23.048Z,39.60
2022-10-22T19:06:50.563Z,40.35
2022-10-22T19:09:18.158Z,39.65
2022-10-22T19:11:45.921Z,40.28
2022-10-22T19:14:14.870Z,40.42
2022-10-22T19:16:42.368Z,37.65
2022-10-22T19:19:09.994Z,40.28
2022-10-22T19:21:38.433Z,40.45
2022-10-22T19:24:06.643Z,40.45
2022-10-22T19:26:34.164Z,39.88
2022-10-22T19:29:01.653Z,39.88
2022-10-22T19:31:31.426Z,40.47
2022-10-22T19:34:01.147Z,41.30
2022-10-22T19:36:30.255Z,41.17
2022-10-22T19:38:58.565Z,40.85
2022-10-22T19:41:27.554Z,41.03
2022-10-22T19:43:56.320Z,42.08
2022-10-22T19:46:25.849Z,42.40
2022-10-22T19:48:54.353Z,41.00
2022-10-22T19:51:24.365Z,41.05
2022-10-22T19:53:57.392Z,42.20
2022-10-22T19:56:25.466Z,41.38
2022-10-22T19:58:52.991Z,40.85
2022-10-22T20:01:21.042Z,40.20
2022-10-22T20:03:48.453Z,40.10
2022-10-22T20:06:17.723Z,41.17
2022-10-22T20:08:45.605Z,40.72
2022-10-22T20:11:22.513Z,39.92
2022-10-22T20:13:52.227Z,40.08
2022-10-22T20:16:23.306Z,40.33
2022-10-22T20:18:51.976Z,40.38
2022-10-22T20:21:20.475Z,41.72
2022-10-22T20:23:52.742Z,41.47
2022-10-22T20:26:21.470Z,40.90
2022-10-22T20:28:48.785Z,42.00
2022-10-22T20:31:19.989Z,41.00
2022-10-22T20:33:48.715Z,40.90
2022-10-22T20:36:21.266Z,41.88
2022-10-22T20:38:49.577Z,41.42
2022-10-22T20:41:21.913Z,40.60
2022-10-22T20:43:51.274Z,40.90
2022-10-22T20:46:29.959Z,41.10
2022-10-22T20:49:01.557Z,40.28
2022-10-22T20:51:29.947Z,39.97
2022-10-22T20:53:57.282Z,40.97
2022-10-22T20:56:24.843Z,41.65
2022-10-22T20:59:05.179Z,41.08
2022-10-22T21:01:52.162Z,41.35
2022-10-22T21:04:21.115Z,41.33
2022-10-22T21:06:50.308Z,40.17
2022-10-22T21:09:17.851Z,40.60
2022-10-22T21:11:45.626Z,41.20
2022-10-22T21:14:15.482Z,42.05
2022-10-22T21:16:50.095Z,41.65
2022-10-22T21:19:19.394Z,40.70
2022-10-22T21:21:46.653Z,39.85
2022-10-22T21:24:14.273Z,41.03
2022-10-22T21:26:42.614Z,41.47
2022-10-22T21:29:11.155Z,41.90
2022-10-22T21:31:40.488Z,40.88
2022-10-22T21:34:08.266Z,41.50
2022-10-22T21:36:35.651Z,40.85
2022-10-22T21:39:03.283Z,41.05
2022-10-22T21:41:30.957Z,40.83
2022-10-22T21:43:58.297Z,41.15
2022-10-22T21:46:27.600Z,42.17
2022-10-22T21:49:02.679Z,40.35
2022-10-22T21:51:33.167Z,41.20
2022-10-22T21:54:00.702Z,37.35
2022-10-22T21:56:32.824Z,23.27
2022-10-22T21:59:00.816Z,23.33
2022-10-22T22:01:28.163Z,20.52
2022-10-22T22:03:55.647Z,36.08
2022-10-22T22:06:28.287Z,41.85
2022-10-22T22:08:59.687Z,32.33
2022-10-22T22:11:28.498Z,39.65
2022-10-22T22:13:57.213Z,28.75
2022-10-22T22:16:30.452Z,33.25
2022-10-22T22:18:59.795Z,35.60
2022-10-22T22:21:27.948Z,27.20
2022-10-22T22:23:55.406Z,28.38
2022-10-22T22:26:28.328Z,17.27
2022-10-22T22:28:58.995Z,21.25
2022-10-22T22:31:29.544Z,14.48
2022-10-22T22:34:07.368Z,17.75
2022-10-22T22:36:37.010Z,23.42
2022-10-22T22:39:06.803Z,14.82
2022-10-22T22:41:34.256Z,13.40
2022-10-22T22:44:01.790Z,13.57
2022-10-22T22:46:29.319Z,13.77
2022-10-22T22:48:56.780Z,14.90
2022-10-22T22:51:24.424Z,28.20
2022-10-22T22:53:52.057Z,33.03
2022-10-22T22:56:22.625Z,27.98
2022-10-22T22:58:50.331Z,38.63
2022-10-22T23:01:23.533Z,33.25
2022-10-22T23:06:46.853Z,25.58
2022-10-22T23:09:15.710Z,39.63
2022-10-22T23:11:44.240Z,40.55
2022-10-22T23:14:14.936Z,38.83
2022-10-22T23:16:46.226Z,41.40
2022-10-22T23:19:16.889Z,41.20
2022-10-22T23:21:47.195Z,30.05
2022-10-22T23:24:16.963Z,28.58
2022-10-22T23:26:46.568Z,33.17
2022-10-22T23:29:20.306Z,23.65
2022-10-22T23:31:48.901Z,25.42
2022-10-22T23:36:52.579Z,18.80
2022-10-22T23:39:22.838Z,22.80
2022-10-22T23:41:51.036Z,16.17
2022-10-22T23:44:18.325Z,24.73
2022-10-22T23:46:46.134Z,22.08
2022-10-22T23:49:14.511Z,21.45
2022-10-22T23:51:42.130Z,39.10
2022-10-22T23:54:13.259Z,39.63
2022-10-22T23:56:40.794Z,40.85
2022-10-22T23:59:09.197Z,34.20
